Penn, North Dakota
Current Conditions -  °F | °C
As of 8:15 AM on Saturday 25 Oct 2014 (Local Time) from KDVL Reporting Station
Clear Clear  
Wind Chill: 32°   Ceiling: Unl
Heat Index: 39°   Visibility: 10mi
Dew Point: 28°   Wind: 12mph
Humidity: 65%   Direction: 280°W
Pressure: 30.06"   Gusts: NA
Location:  48.22°N, 99.09°W
Report Text: KDVL 251315Z AUTO 28010KT 10SM CLR 04/M02 A3006 RMK AO1
Loading
Personal Weather Stations






























Interactive Weather Map
Tropical Storm Tracking
New forecast layout! Learn more

10-Day Weather Forecast

Advertisements
Track Severe Weather on mobile